F/V Oceanie — FVBW — position and weather

sailwx.info

Track history (hours):
 
Tides and Currents Weather Stations Pressure Air Temp Water Temp Dewpoint Dewpoint Depression Visibility Wind Speed Wind Dir Waves Ship Positions

F/V Oceanie

Last reported at 2018-Jan-18 09:22 UTC. Time now 2018-Jan-22 06:42 UTC.
Position N 47°44' W 003°22'.

Length 16 m.

Type: Fishing. MMSI: 228370000.

Date/timePositionNaut miles runAvg speedWind from/ knotsBaromVisibWave heightAir tempDewpointWater temp
2018-Jan-18 09:22N 47°44' W 003°22'  
2018-Jan-12 15:00N 47°44' W 003°22'0 0.0
2018-Jan-12 14:30N 47°44' W 003°22'2 4.5
2018-Jan-12 14:01N 47°42' W 003°23'4 8.1
2018-Jan-12 13:30N 47°41' W 003°29'4 8.7
2018-Jan-12 13:00N 47°41' W 003°35'4 8.6
2018-Jan-12 12:30N 47°42' W 003°42'5 8.7
2018-Jan-12 11:58N 47°44' W 003°48'10 8.6
2018-Jan-12 10:48N 47°45' W 004°03'9 8.6
2018-Jan-12 09:48N 47°45' W 004°16'8 7.8
2018-Jan-12 08:48N 47°47' W 004°27'8 8.3
2018-Jan-12 07:51N 47°50' W 004°38'3 8.4
2018-Jan-12 07:29N 47°51' W 004°42'4 8.3
2018-Jan-12 07:00N 47°53' W 004°48'4 8.3
2018-Jan-12 06:30N 47°55' W 004°53'1 2.9
2018-Jan-12 06:00N 47°55' W 004°55'1 2.2
2018-Jan-12 05:30N 47°54' W 004°56'2 3.0
2018-Jan-12 05:00N 47°55' W 004°55'2 3.5
2018-Jan-12 04:30N 47°53' W 004°56'1 2.6
2018-Jan-12 04:00N 47°54' W 004°55'0 0.7
2018-Jan-12 03:30N 47°54' W 004°55'1 1.9
2018-Jan-12 03:00N 47°53' W 004°56'2 4.0
2018-Jan-12 02:30N 47°55' W 004°54'1 2.1
2018-Jan-12 02:00N 47°54' W 004°55'0 0.4
2018-Jan-12 01:30N 47°54' W 004°56'1 2.7
2018-Jan-12 01:00N 47°56' W 004°55'2 3.7
2018-Jan-12 00:30N 47°54' W 004°56'2 3.5
2018-Jan-12 00:00N 47°55' W 004°55'1 1.3
2018-Jan-11 23:30N 47°55' W 004°56'0 0.9
2018-Jan-11 23:00N 47°54' W 004°56'2 3.2
2018-Jan-11 22:30N 47°56' W 004°57'1 1.8
2018-Jan-11 22:00N 47°57' W 004°56'2 3.8
2018-Jan-11 21:30N 47°55' W 004°56'0 0.3
2018-Jan-11 21:00N 47°55' W 004°56'1 3.0
2018-Jan-11 20:30N 47°56' W 004°57'1 2.7
2018-Jan-11 20:00N 47°55' W 004°56'1 1.4
2018-Jan-11 19:30N 47°54' W 004°56'1 2.9
2018-Jan-11 19:00N 47°55' W 004°57'1 1.9
2018-Jan-11 18:30N 47°54' W 004°57'2 4.0
2018-Jan-11 18:00N 47°54' W 004°54'2 4.8
2018-Jan-11 17:30N 47°55' W 004°57'2 3.4
2018-Jan-11 17:00N 47°54' W 004°55'1 1.8
2018-Jan-11 16:30N 47°55' W 004°53'5 8.9
2018-Jan-11 16:00N 47°53' W 004°47'37 8.9
2018-Jan-11 11:52N 47°44' W 003°54'3 9.4
2018-Jan-11 11:30N 47°44' W 003°49'5 9.2
2018-Jan-11 11:01N 47°43' W 003°43'4 8.9
2018-Jan-11 10:30N 47°42' W 003°36'4 8.9
2018-Jan-11 10:00N 47°41' W 003°30'4 8.5
2018-Jan-11 09:31N 47°41' W 003°23'2 4.9
2018-Jan-11 09:00N 47°44' W 003°22'0 0.0
2018-Jan-11 08:30N 47°44' W 003°22'0 0.0
2018-Jan-11 08:00N 47°44' W 003°22'0 0.0
2018-Jan-11 07:30N 47°44' W 003°22'0 0.2
2018-Jan-11 07:00N 47°44' W 003°22'0 0.0
2018-Jan-11 06:30N 47°44' W 003°22'0 0.0
2018-Jan-11 06:00N 47°44' W 003°22'0 0.0
2018-Jan-11 05:31N 47°44' W 003°22'0 0.0
2018-Jan-11 05:00N 47°44' W 003°22'0 0.0
2018-Jan-11 04:30N 47°44' W 003°22'0 0.0
2018-Jan-11 04:00N 47°44' W 003°22'0 0.2
2018-Jan-11 03:30N 47°44' W 003°22'0 0.0
2018-Jan-11 03:00N 47°44' W 003°22'0 0.3
2018-Jan-11 02:30N 47°44' W 003°22'2 3.3
2018-Jan-11 01:58N 47°42' W 003°22'4 8.7
2018-Jan-11 01:30N 47°38' W 003°23'4 8.4
2018-Jan-11 01:00N 47°34' W 003°24'4 8.5
2018-Jan-11 00:30N 47°30' W 003°26'4 7.9
2018-Jan-10 23:57N 47°26' W 003°27'2 3.1
2018-Jan-10 23:22N 47°24' W 003°28'2 3.7
2018-Jan-10 22:57N 47°22' W 003°28'4 3.2
2018-Jan-10 21:50N 47°20' W 003°24'1 2.1
2018-Jan-10 21:19N 47°20' W 003°26'1 3.8
2018-Jan-10 20:57N 47°21' W 003°27'2 3.9
2018-Jan-10 20:30N 47°21' W 003°30'1 2.1
2018-Jan-10 20:01N 47°22' W 003°29'2 4.1
2018-Jan-10 19:31N 47°21' W 003°26'3 5.3
2018-Jan-10 19:01N 47°19' W 003°29'1 2.2
2018-Jan-10 18:30N 47°18' W 003°28'2 3.1
2018-Jan-10 17:59N 47°17' W 003°27'2 3.6
2018-Jan-10 17:30N 47°16' W 003°29'1 0.2
2018-Jan-10 12:12N 47°17' W 003°27'1 4.1
2018-Jan-10 12:00N 47°16' W 003°26'1 2.7
2018-Jan-10 11:29N 47°15' W 003°26'2 3.4
2018-Jan-10 11:00N 47°16' W 003°28'2 3.8
2018-Jan-10 10:30N 47°17' W 003°30'1 2.1
2018-Jan-10 10:00N 47°18' W 003°30'2 3.9
2018-Jan-10 09:30N 47°17' W 003°27'1 2.9
2018-Jan-10 09:00N 47°16' W 003°28'2 3.9
2018-Jan-10 08:30N 47°17' W 003°31'1 2.8
2018-Jan-10 08:00N 47°18' W 003°29'2 3.6
2018-Jan-10 07:30N 47°18' W 003°27'4 7.6
2018-Jan-10 07:00N 47°22' W 003°26'4 8.3
2018-Jan-10 06:30N 47°26' W 003°25'4 8.2
2018-Jan-10 06:00N 47°30' W 003°24'4 8.5
2018-Jan-10 05:30N 47°34' W 003°23'4 8.3
2018-Jan-10 05:00N 47°38' W 003°22'4 8.6
2018-Jan-10 04:30N 47°43' W 003°22'1 0.1
2018-Jan-09 14:02N 47°44' W 003°22'0 0.3
2018-Jan-09 14:00N 47°44' W 003°22'0 0.0
2018-Jan-09 13:30N 47°44' W 003°22'0 0.6
2018-Jan-09 13:00N 47°43' W 003°22'4 7.3
2018-Jan-09 12:30N 47°41' W 003°26'4 8.2
2018-Jan-09 12:00N 47°41' W 003°32'4 8.5
2018-Jan-09 11:30N 47°42' W 003°38'4 8.5
2018-Jan-09 11:00N 47°43' W 003°44'21 8.8
2018-Jan-09 08:33N 47°45' W 004°16'17 8.5
2018-Jan-09 06:32N 47°50' W 004°40'2 8.4
2018-Jan-09 06:20N 47°51' W 004°43'3 8.2
2018-Jan-09 06:00N 47°52' W 004°46'3 6.9
2018-Jan-09 05:30N 47°53' W 004°51'2 4.1
2018-Jan-09 05:00N 47°54' W 004°54'1 2.4
2018-Jan-09 04:30N 47°54' W 004°56'0 0.6
2018-Jan-09 04:01N 47°54' W 004°56'1 1.6
2018-Jan-09 03:30N 47°54' W 004°55'1 2.7
2018-Jan-09 03:00N 47°54' W 004°57'2 3.6
2018-Jan-09 02:31N 47°54' W 004°54'2 3.5
2018-Jan-09 02:00N 47°54' W 004°57'1 2.0
2018-Jan-09 01:30N 47°54' W 004°55'1 2.0
2018-Jan-09 01:01N 47°53' W 004°56'1 1.7
2018-Jan-09 00:30N 47°54' W 004°56'0 0.9
2018-Jan-09 00:00N 47°54' W 004°56'1 2.8
2018-Jan-08 23:30N 47°52' W 004°54'2 3.4
2018-Jan-08 23:00N 47°54' W 004°54'2 4.6
2018-Jan-08 22:31N 47°56' W 004°55'2 4.2
2018-Jan-08 22:00N 47°58' W 004°57'2 3.4
2018-Jan-08 21:30N 47°58' W 004°60'1 2.3
2018-Jan-08 21:00N 47°57' W 004°58'2 3.6
2018-Jan-08 20:30N 47°56' W 004°56'2 3.7
2018-Jan-08 20:00N 47°55' W 004°54'1 1.8
2018-Jan-08 19:30N 47°55' W 004°55'2 3.3
2018-Jan-08 19:00N 47°56' W 004°57'2 3.1
2018-Jan-08 18:30N 47°57' W 004°58'1 2.9
2018-Jan-08 18:01N 47°58' W 005°01'2 4.5
2018-Jan-08 17:30N 47°57' W 004°57'45 8.5
2018-Jan-08 12:14N 47°44' W 003°53'2 9.2
2018-Jan-08 12:00N 47°44' W 003°50'5 9.4
2018-Jan-08 11:30N 47°43' W 003°44'5 9.3
2018-Jan-08 11:00N 47°42' W 003°37'5 9.4
2018-Jan-08 10:30N 47°41' W 003°30'5 9.3
2018-Jan-08 10:00N 47°41' W 003°23'3 5.0
2018-Jan-08 09:30N 47°44' W 003°22'  
Track history (hours):
 
Tides and Currents Weather Stations Pressure Air Temp Water Temp Dewpoint Dewpoint Depression Visibility Wind Speed Wind Dir Waves Ship Positions

F/V Oceanie

Last reported at 2018-Jan-18 09:22 UTC. Time now 2018-Jan-22 06:42 UTC.
Position N 47°44' W 003°22'.

Length 16 m.

Type: Fishing. MMSI: 228370000.

Date/timePositionNaut miles runAvg speedWind from/ knotsBaromVisibWave heightAir tempDewpointWater temp
2018-Jan-18 09:22N 47°44' W 003°22'  
2018-Jan-12 15:00N 47°44' W 003°22'0 0.0
2018-Jan-12 14:30N 47°44' W 003°22'2 4.5
2018-Jan-12 14:01N 47°42' W 003°23'4 8.1
2018-Jan-12 13:30N 47°41' W 003°29'4 8.7
2018-Jan-12 13:00N 47°41' W 003°35'4 8.6
2018-Jan-12 12:30N 47°42' W 003°42'5 8.7
2018-Jan-12 11:58N 47°44' W 003°48'10 8.6
2018-Jan-12 10:48N 47°45' W 004°03'9 8.6
2018-Jan-12 09:48N 47°45' W 004°16'8 7.8
2018-Jan-12 08:48N 47°47' W 004°27'8 8.3
2018-Jan-12 07:51N 47°50' W 004°38'3 8.4
2018-Jan-12 07:29N 47°51' W 004°42'4 8.3
2018-Jan-12 07:00N 47°53' W 004°48'4 8.3
2018-Jan-12 06:30N 47°55' W 004°53'1 2.9
2018-Jan-12 06:00N 47°55' W 004°55'1 2.2
2018-Jan-12 05:30N 47°54' W 004°56'2 3.0
2018-Jan-12 05:00N 47°55' W 004°55'2 3.5
2018-Jan-12 04:30N 47°53' W 004°56'1 2.6
2018-Jan-12 04:00N 47°54' W 004°55'0 0.7
2018-Jan-12 03:30N 47°54' W 004°55'1 1.9
2018-Jan-12 03:00N 47°53' W 004°56'2 4.0
2018-Jan-12 02:30N 47°55' W 004°54'1 2.1
2018-Jan-12 02:00N 47°54' W 004°55'0 0.4
2018-Jan-12 01:30N 47°54' W 004°56'1 2.7
2018-Jan-12 01:00N 47°56' W 004°55'2 3.7
2018-Jan-12 00:30N 47°54' W 004°56'2 3.5
2018-Jan-12 00:00N 47°55' W 004°55'1 1.3
2018-Jan-11 23:30N 47°55' W 004°56'0 0.9
2018-Jan-11 23:00N 47°54' W 004°56'2 3.2
2018-Jan-11 22:30N 47°56' W 004°57'1 1.8
2018-Jan-11 22:00N 47°57' W 004°56'2 3.8
2018-Jan-11 21:30N 47°55' W 004°56'0 0.3
2018-Jan-11 21:00N 47°55' W 004°56'1 3.0
2018-Jan-11 20:30N 47°56' W 004°57'1 2.7
2018-Jan-11 20:00N 47°55' W 004°56'1 1.4
2018-Jan-11 19:30N 47°54' W 004°56'1 2.9
2018-Jan-11 19:00N 47°55' W 004°57'1 1.9
2018-Jan-11 18:30N 47°54' W 004°57'2 4.0
2018-Jan-11 18:00N 47°54' W 004°54'2 4.8
2018-Jan-11 17:30N 47°55' W 004°57'2 3.4
2018-Jan-11 17:00N 47°54' W 004°55'1 1.8
2018-Jan-11 16:30N 47°55' W 004°53'5 8.9
2018-Jan-11 16:00N 47°53' W 004°47'37 8.9
2018-Jan-11 11:52N 47°44' W 003°54'3 9.4
2018-Jan-11 11:30N 47°44' W 003°49'5 9.2
2018-Jan-11 11:01N 47°43' W 003°43'4 8.9
2018-Jan-11 10:30N 47°42' W 003°36'4 8.9
2018-Jan-11 10:00N 47°41' W 003°30'4 8.5
2018-Jan-11 09:31N 47°41' W 003°23'2 4.9
2018-Jan-11 09:00N 47°44' W 003°22'0 0.0
2018-Jan-11 08:30N 47°44' W 003°22'0 0.0
2018-Jan-11 08:00N 47°44' W 003°22'0 0.0
2018-Jan-11 07:30N 47°44' W 003°22'0 0.2
2018-Jan-11 07:00N 47°44' W 003°22'0 0.0
2018-Jan-11 06:30N 47°44' W 003°22'0 0.0
2018-Jan-11 06:00N 47°44' W 003°22'0 0.0
2018-Jan-11 05:31N 47°44' W 003°22'0 0.0
2018-Jan-11 05:00N 47°44' W 003°22'0 0.0
2018-Jan-11 04:30N 47°44' W 003°22'0 0.0
2018-Jan-11 04:00N 47°44' W 003°22'0 0.2
2018-Jan-11 03:30N 47°44' W 003°22'0 0.0
2018-Jan-11 03:00N 47°44' W 003°22'0 0.3
2018-Jan-11 02:30N 47°44' W 003°22'2 3.3
2018-Jan-11 01:58N 47°42' W 003°22'4 8.7
2018-Jan-11 01:30N 47°38' W 003°23'4 8.4
2018-Jan-11 01:00N 47°34' W 003°24'4 8.5
2018-Jan-11 00:30N 47°30' W 003°26'4 7.9
2018-Jan-10 23:57N 47°26' W 003°27'2 3.1
2018-Jan-10 23:22N 47°24' W 003°28'2 3.7
2018-Jan-10 22:57N 47°22' W 003°28'4 3.2
2018-Jan-10 21:50N 47°20' W 003°24'1 2.1
2018-Jan-10 21:19N 47°20' W 003°26'1 3.8
2018-Jan-10 20:57N 47°21' W 003°27'2 3.9
2018-Jan-10 20:30N 47°21' W 003°30'1 2.1
2018-Jan-10 20:01N 47°22' W 003°29'2 4.1
2018-Jan-10 19:31N 47°21' W 003°26'3 5.3
2018-Jan-10 19:01N 47°19' W 003°29'1 2.2
2018-Jan-10 18:30N 47°18' W 003°28'2 3.1
2018-Jan-10 17:59N 47°17' W 003°27'2 3.6
2018-Jan-10 17:30N 47°16' W 003°29'1 0.2
2018-Jan-10 12:12N 47°17' W 003°27'1 4.1
2018-Jan-10 12:00N 47°16' W 003°26'1 2.7
2018-Jan-10 11:29N 47°15' W 003°26'2 3.4
2018-Jan-10 11:00N 47°16' W 003°28'2 3.8
2018-Jan-10 10:30N 47°17' W 003°30'1 2.1
2018-Jan-10 10:00N 47°18' W 003°30'2 3.9
2018-Jan-10 09:30N 47°17' W 003°27'1 2.9
2018-Jan-10 09:00N 47°16' W 003°28'2 3.9
2018-Jan-10 08:30N 47°17' W 003°31'1 2.8
2018-Jan-10 08:00N 47°18' W 003°29'2 3.6
2018-Jan-10 07:30N 47°18' W 003°27'4 7.6
2018-Jan-10 07:00N 47°22' W 003°26'4 8.3
2018-Jan-10 06:30N 47°26' W 003°25'4 8.2
2018-Jan-10 06:00N 47°30' W 003°24'4 8.5
2018-Jan-10 05:30N 47°34' W 003°23'4 8.3
2018-Jan-10 05:00N 47°38' W 003°22'4 8.6
2018-Jan-10 04:30N 47°43' W 003°22'1 0.1
2018-Jan-09 14:02N 47°44' W 003°22'0 0.3
2018-Jan-09 14:00N 47°44' W 003°22'0 0.0
2018-Jan-09 13:30N 47°44' W 003°22'0 0.6
2018-Jan-09 13:00N 47°43' W 003°22'4 7.3
2018-Jan-09 12:30N 47°41' W 003°26'4 8.2
2018-Jan-09 12:00N 47°41' W 003°32'4 8.5
2018-Jan-09 11:30N 47°42' W 003°38'4 8.5
2018-Jan-09 11:00N 47°43' W 003°44'21 8.8
2018-Jan-09 08:33N 47°45' W 004°16'17 8.5
2018-Jan-09 06:32N 47°50' W 004°40'2 8.4
2018-Jan-09 06:20N 47°51' W 004°43'3 8.2
2018-Jan-09 06:00N 47°52' W 004°46'3 6.9
2018-Jan-09 05:30N 47°53' W 004°51'2 4.1
2018-Jan-09 05:00N 47°54' W 004°54'1 2.4
2018-Jan-09 04:30N 47°54' W 004°56'0 0.6
2018-Jan-09 04:01N 47°54' W 004°56'1 1.6
2018-Jan-09 03:30N 47°54' W 004°55'1 2.7
2018-Jan-09 03:00N 47°54' W 004°57'2 3.6
2018-Jan-09 02:31N 47°54' W 004°54'2 3.5
2018-Jan-09 02:00N 47°54' W 004°57'1 2.0
2018-Jan-09 01:30N 47°54' W 004°55'1 2.0
2018-Jan-09 01:01N 47°53' W 004°56'1 1.7
2018-Jan-09 00:30N 47°54' W 004°56'0 0.9
2018-Jan-09 00:00N 47°54' W 004°56'1 2.8
2018-Jan-08 23:30N 47°52' W 004°54'2 3.4
2018-Jan-08 23:00N 47°54' W 004°54'2 4.6
2018-Jan-08 22:31N 47°56' W 004°55'2 4.2
2018-Jan-08 22:00N 47°58' W 004°57'2 3.4
2018-Jan-08 21:30N 47°58' W 004°60'1 2.3
2018-Jan-08 21:00N 47°57' W 004°58'2 3.6
2018-Jan-08 20:30N 47°56' W 004°56'2 3.7
2018-Jan-08 20:00N 47°55' W 004°54'1 1.8
2018-Jan-08 19:30N 47°55' W 004°55'2 3.3
2018-Jan-08 19:00N 47°56' W 004°57'2 3.1
2018-Jan-08 18:30N 47°57' W 004°58'1 2.9
2018-Jan-08 18:01N 47°58' W 005°01'2 4.5
2018-Jan-08 17:30N 47°57' W 004°57'45 8.5
2018-Jan-08 12:14N 47°44' W 003°53'2 9.2
2018-Jan-08 12:00N 47°44' W 003°50'5 9.4
2018-Jan-08 11:30N 47°43' W 003°44'5 9.3
2018-Jan-08 11:00N 47°42' W 003°37'5 9.4
2018-Jan-08 10:30N 47°41' W 003°30'5 9.3
2018-Jan-08 10:00N 47°41' W 003°23'3 5.0
2018-Jan-08 09:30N 47°44' W 003°22'  

Dump ship's entire track history